Terminal Aerodrome Forecast
Issued by NWS

Home | Current Version | Previous Version | Text Only | Print | Product List | Glossary On
Versions: 1 2 3 4 5 6 7 8 9 10 11 12 13 14 15 16 17 18 19 20 21 22 23 24 25 26 27 28 29 30 31 32 33 34 35 36 37 38 39 40 41 42 43 44
000
FTUS43 KDMX 310636 AAA
TAFMCW
TAF AMD
KMCW 310636Z 3107/0106 VRB03KT 2SM BR SCT008 SCT010
      TEMPO 3107/3109 1SM BR SCT002 SCT008
     FM310900 VRB03KT 1SM BR SCT002 SCT008
      TEMPO 3109/3111 1/2SM FG BKN002 BKN008
     FM311100 VRB03KT 1/2SM FG SCT002 BKN006
      TEMPO 3111/3113 1/4SM FG VV001
     FM311300 18004KT 3SM BR SCT070
     FM311500 18014G21KT P6SM SCT080
     FM312300 17012KT P6SM VCSH BKN120
     FM010100 16008KT P6SM VCTS BKN050CB=

USA.gov is the U.S. government's official web portal to all federal, state and local government web resources and services.